Resighini Rancheria, California
Current Conditions -  °F | °C
As of 7:33 PM on Friday 28 Nov 2014 (Local Time) from KACV Reporting Station
Broken Clouds Broken Clouds  
Wind Chill: 57°   Ceiling: 1200
Heat Index: 57°   Visibility: 10mi
Dew Point: 55°   Wind: 7mph
Humidity: 93%   Direction: 170°S
Pressure: 29.76"   Gusts: NA
Location:  41.4038°N, 123.781°W
Report Text: KACV 290333Z AUTO 17006KT 10SM BKN012 BKN018 14/13 A2976 RMK AO2 T01390128
Loading
Personal Weather Stations






























Interactive Weather Map New forecast layout! Learn more

10-Day Weather Forecast

Advertisements
Track Severe Weather on mobile